Time;durP1;ratioP1;P1;durP2;ratioP2;P2;SDS_P1;SDS_P2;PMS_P1;PMS_P2;Temp;Humidity;BMP_temperature;BMP_pressure;BME280_temperature;BME280_humidity;BME280_pressure;Samples;Min_cycle;Max_cycle;Signal;HPM_P1;HPM_P2
2022/01/30 00:08:09;;;;;;;2.2;4.3;;;;;;;6.7;68.5;97680;;;;
2022/01/30 00:18:20;;;;;;;1.4;2.5;;;;;;;7;68.7;97690;;;;
2022/01/30 00:29:09;;;;;;;1.4;2.5;;;;;;;7.2;69.4;97690;;;;
2022/01/30 00:40:09;;;;;;;1.4;2.5;;;;;;;7.2;69;97660;;;;
2022/01/30 00:50:09;;;;;;;1.3;2.6;;;;;;;7.3;67.5;97680;;;;
2022/01/30 01:01:09;;;;;;;1.3;2.6;;;;;;;7.4;67.5;97650;;;;
2022/01/30 01:11:27;;;;;;;1.3;2.6;;;;;;;7.5;65.7;97630;;;;
2022/01/30 01:32:09;;;;;;;0.9;1.9;;;;;;;7.4;66.7;97600;;;;
2022/01/30 01:43:09;;;;;;;0.9;1.9;;;;;;;6.9;72.9;97640;;;;
2022/01/30 01:53:09;;;;;;;1.2;2.7;;;;;;;6.6;73.5;97670;;;;
2022/01/30 02:03:09;;;;;;;1.2;2.7;;;;;;;6.7;68.3;97630;;;;
2022/01/30 02:14:28;;;;;;;1.2;2.7;;;;;;;6.4;68.6;97690;;;;
2022/01/30 02:25:24;;;;;;;2.3;4.6;;;;;;;5.7;74.5;97710;;;;
2022/01/30 02:36:09;;;;;;;2.3;4.6;;;;;;;5.6;72.1;97690;;;;
2022/01/30 02:47:20;;;;;;;2.5;5.2;;;;;;;5.7;68.5;97690;;;;
2022/01/30 02:57:09;;;;;;;2.5;5.2;;;;;;;5.9;66.9;97690;;;;
2022/01/30 03:08:09;;;;;;;2.5;5.2;;;;;;;5.9;66.7;97680;;;;
2022/01/30 03:18:09;;;;;;;2.8;6.9;;;;;;;5.9;64.2;97700;;;;
2022/01/30 03:29:09;;;;;;;2.8;6.9;;;;;;;5.8;63.1;97680;;;;
2022/01/30 03:39:09;;;;;;;2.8;6.9;;;;;;;5.8;59.5;97670;;;;
2022/01/30 03:49:09;;;;;;;2.9;6.3;;;;;;;5.7;59.6;97660;;;;
2022/01/30 03:59:09;;;;;;;2.9;6.3;;;;;;;5.6;58.1;97670;;;;
2022/01/30 04:09:09;;;;;;;2.9;6.3;;;;;;;5.7;56.5;97650;;;;
2022/01/30 04:20:09;;;;;;;2.7;6.5;;;;;;;5.6;57.2;97630;;;;
2022/01/30 04:30:09;;;;;;;2.7;6.5;;;;;;;5.5;58.4;97610;;;;
2022/01/30 04:40:31;;;;;;;2.7;6.5;;;;;;;5.4;59.7;97600;;;;
2022/01/30 05:00:24;;;;;;;3.7;8.7;;;;;;;3.9;74.5;97740;;;;
2022/01/30 05:10:09;;;;;;;3.7;8.7;;;;;;;3;78;97630;;;;
2022/01/30 05:20:09;;;;;;;6.5;13.4;;;;;;;3.5;74.9;97640;;;;
2022/01/30 05:30:09;;;;;;;6.5;13.4;;;;;;;3.9;72.2;97630;;;;
2022/01/30 05:41:09;;;;;;;6.5;13.4;;;;;;;4;70.5;97600;;;;
2022/01/30 05:52:09;;;;;;;3.1;6.4;;;;;;;4.2;65.4;97540;;;;
2022/01/30 06:03:09;;;;;;;3.1;6.4;;;;;;;4.8;60.9;97540;;;;
2022/01/30 06:13:09;;;;;;;3.1;6.4;;;;;;;4.9;59;97500;;;;
2022/01/30 06:23:09;;;;;;;3.3;8.5;;;;;;;5.1;58;97520;;;;
2022/01/30 06:34:09;;;;;;;3.3;8.5;;;;;;;5.2;59.8;97540;;;;
2022/01/30 06:45:09;;;;;;;3.3;8.5;;;;;;;5.1;59.9;97540;;;;
2022/01/30 06:55:09;;;;;;;3.3;6.9;;;;;;;5.1;60.1;97530;;;;
2022/01/30 07:06:09;;;;;;;3.3;6.9;;;;;;;5.2;59.4;97520;;;;
2022/01/30 07:16:09;;;;;;;2.8;7.5;;;;;;;5.3;58.3;97560;;;;
2022/01/30 07:27:09;;;;;;;2.8;7.5;;;;;;;5.2;59.9;97530;;;;
2022/01/30 07:37:09;;;;;;;2.8;7.5;;;;;;;5.1;59.9;97530;;;;
2022/01/30 07:47:09;;;;;;;3;7.2;;;;;;;5.1;60;97510;;;;
2022/01/30 07:58:10;;;;;;;3;7.2;;;;;;;5.1;59.5;97500;;;;
2022/01/30 08:09:09;;;;;;;3;7.2;;;;;;;5.2;59.8;97500;;;;
2022/01/30 08:19:09;;;;;;;3.3;6.6;;;;;;;5.1;62.5;97480;;;;
2022/01/30 08:30:09;;;;;;;3.3;6.6;;;;;;;4.9;63.9;97480;;;;
2022/01/30 08:40:09;;;;;;;3.3;6.6;;;;;;;4.9;64.5;97500;;;;
2022/01/30 08:51:09;;;;;;;3.2;7;;;;;;;4.2;70.7;97510;;;;
2022/01/30 09:01:12;;;;;;;3.2;7;;;;;;;3.7;72.8;97520;;;;
2022/01/30 09:12:09;;;;;;;3.2;7;;;;;;;3.7;74.5;97550;;;;
2022/01/30 09:23:10;;;;;;;4.7;8.2;;;;;;;3.9;74.6;97580;;;;
2022/01/30 09:33:09;;;;;;;4.7;8.2;;;;;;;3.6;75.1;97570;;;;
2022/01/30 09:43:09;;;;;;;4.7;8.2;;;;;;;3.6;74.7;97550;;;;
2022/01/30 09:53:09;;;;;;;7.1;14.4;;;;;;;3.7;73;97530;;;;
2022/01/30 10:04:09;;;;;;;7.1;14.4;;;;;;;4;70.6;97520;;;;
2022/01/30 10:15:11;;;;;;;5.6;12.4;;;;;;;4.3;68.6;97510;;;;
2022/01/30 10:25:09;;;;;;;5.6;12.4;;;;;;;4.6;67.3;97500;;;;
2022/01/30 10:35:10;;;;;;;5.6;12.4;;;;;;;4.9;65.4;97500;;;;
2022/01/30 10:46:09;;;;;;;4.4;9.3;;;;;;;4.9;64.5;97500;;;;
2022/01/30 10:56:09;;;;;;;4.4;9.3;;;;;;;4.7;65.2;97500;;;;
2022/01/30 11:06:11;;;;;;;4.4;9.3;;;;;;;4.5;67.5;97520;;;;
2022/01/30 11:17:09;;;;;;;5.9;15.1;;;;;;;4.2;70.9;97580;;;;
2022/01/30 11:28:11;;;;;;;5.9;15.1;;;;;;;3.3;76.7;97600;;;;
2022/01/30 11:39:09;;;;;;;5.9;15.1;;;;;;;2.6;80.5;97620;;;;
2022/01/30 11:50:09;;;;;;;7.4;11.5;;;;;;;2.7;81.7;97580;;;;
2022/01/30 12:01:09;;;;;;;7.4;11.5;;;;;;;2.7;82.1;97560;;;;
2022/01/30 12:11:09;;;;;;;7.4;11.5;;;;;;;2.8;81.7;97560;;;;
2022/01/30 12:21:11;;;;;;;7.5;13.4;;;;;;;2.9;81.8;97530;;;;
2022/01/30 12:32:09;;;;;;;7.5;13.4;;;;;;;2.9;80.7;97530;;;;
2022/01/30 12:42:09;;;;;;;7.5;13.4;;;;;;;3;80.2;97550;;;;
2022/01/30 12:53:09;;;;;;;8.1;14.2;;;;;;;3.3;78.4;97560;;;;
2022/01/30 13:03:13;;;;;;;8.1;14.2;;;;;;;3.7;74.8;97570;;;;
2022/01/30 13:13:09;;;;;;;8.1;14.2;;;;;;;3.8;73.7;97590;;;;
2022/01/30 13:23:09;;;;;;;7.1;14;;;;;;;4;72.5;97580;;;;
2022/01/30 13:33:09;;;;;;;7.1;14;;;;;;;4.1;71.6;97600;;;;
2022/01/30 13:44:21;;;;;;;7.1;14;;;;;;;3.9;73.1;97640;;;;
2022/01/30 13:54:10;;;;;;;7.7;10.7;;;;;;;3.8;74.9;97680;;;;
2022/01/30 14:05:09;;;;;;;7.7;10.7;;;;;;;3.8;74.9;97680;;;;
2022/01/30 14:16:14;;;;;;;8.5;15.3;;;;;;;3.7;76;97730;;;;
2022/01/30 14:26:09;;;;;;;8.5;15.3;;;;;;;3.4;77.3;97730;;;;
2022/01/30 14:36:09;;;;;;;8.5;15.3;;;;;;;3.3;78.4;97770;;;;
2022/01/30 14:47:09;;;;;;;7.4;15.4;;;;;;;3;79.9;97790;;;;
2022/01/30 14:57:09;;;;;;;7.4;15.4;;;;;;;2.8;80.6;97810;;;;
2022/01/30 15:08:09;;;;;;;7.4;15.4;;;;;;;2.7;80.7;97830;;;;
2022/01/30 15:18:17;;;;;;;8.7;16.8;;;;;;;2.8;80.3;97830;;;;
2022/01/30 15:29:09;;;;;;;8.7;16.8;;;;;;;2.9;80;97860;;;;
2022/01/30 15:40:10;;;;;;;8.7;16.8;;;;;;;2.9;79.9;97880;;;;
2022/01/30 15:50:09;;;;;;;12.7;21.8;;;;;;;2.9;80.4;97900;;;;
2022/01/30 16:00:09;;;;;;;12.7;21.8;;;;;;;2.8;80.7;97910;;;;
2022/01/30 16:11:33;;;;;;;12.7;21.8;;;;;;;2.7;80.7;97930;;;;
2022/01/30 16:21:09;;;;;;;13.5;18.8;;;;;;;2.8;80.1;97940;;;;
2022/01/30 16:31:09;;;;;;;13.5;18.8;;;;;;;2.9;79.1;97950;;;;
2022/01/30 16:41:09;;;;;;;13.5;18.8;;;;;;;3.2;77.1;97940;;;;
2022/01/30 16:52:09;;;;;;;13.4;19.9;;;;;;;3.4;75;97940;;;;
2022/01/30 17:02:12;;;;;;;13.4;19.9;;;;;;;3.7;73.5;97950;;;;
2022/01/30 17:13:09;;;;;;;13.4;19.9;;;;;;;3.9;71.9;97970;;;;
2022/01/30 17:23:09;;;;;;;15.7;27.6;;;;;;;4;70.6;97960;;;;
2022/01/30 17:34:09;;;;;;;15.7;27.6;;;;;;;4;70.5;97970;;;;
2022/01/30 17:44:09;;;;;;;12.5;24.3;;;;;;;4.2;68.4;97970;;;;
2022/01/30 17:55:09;;;;;;;12.5;24.3;;;;;;;4.2;68.6;97990;;;;
2022/01/30 18:06:11;;;;;;;12.5;24.3;;;;;;;4.3;67.7;97990;;;;
2022/01/30 18:16:09;;;;;;;11.9;22.8;;;;;;;4.2;67.3;97980;;;;
2022/01/30 18:26:09;;;;;;;11.9;22.8;;;;;;;4.2;66.8;98000;;;;
2022/01/30 18:36:14;;;;;;;11.9;22.8;;;;;;;4.3;66.2;98020;;;;
2022/01/30 18:47:10;;;;;;;10.4;24.9;;;;;;;4.3;65.9;98030;;;;
2022/01/30 18:58:09;;;;;;;10.4;24.9;;;;;;;4.3;65.4;98040;;;;
2022/01/30 19:08:10;;;;;;;10.4;24.9;;;;;;;4.3;65;98050;;;;
2022/01/30 19:18:09;;;;;;;10.9;18;;;;;;;4.3;64.9;98070;;;;
2022/01/30 19:28:09;;;;;;;10.9;18;;;;;;;4.3;64.5;98070;;;;
2022/01/30 19:38:09;;;;;;;10.9;18;;;;;;;4.3;64.4;98080;;;;
2022/01/30 19:48:10;;;;;;;11.1;19.9;;;;;;;4.2;64.1;98090;;;;
2022/01/30 19:59:10;;;;;;;11.1;19.9;;;;;;;4;65.2;98080;;;;
2022/01/30 20:10:09;;;;;;;11.1;19.9;;;;;;;3.9;65.6;98100;;;;
2022/01/30 20:20:09;;;;;;;10.1;18;;;;;;;3.9;66.1;98100;;;;
2022/01/30 20:31:09;;;;;;;10.1;18;;;;;;;3.9;65;98090;;;;
2022/01/30 20:41:09;;;;;;;10.1;18;;;;;;;3.7;67.3;98130;;;;
2022/01/30 20:52:09;;;;;;;11;25.7;;;;;;;3.5;68.9;98120;;;;
2022/01/30 21:03:09;;;;;;;11;25.7;;;;;;;3.7;65.5;98140;;;;
2022/01/30 21:14:09;;;;;;;13.6;27.4;;;;;;;3.8;65.1;98140;;;;
2022/01/30 21:25:09;;;;;;;13.6;27.4;;;;;;;3.7;65.9;98170;;;;
2022/01/30 21:35:10;;;;;;;13.6;27.4;;;;;;;3.6;67.2;98180;;;;
2022/01/30 21:46:09;;;;;;;12;21.5;;;;;;;3.4;67.9;98180;;;;
2022/01/30 21:56:11;;;;;;;12;21.5;;;;;;;3.4;67.9;98180;;;;
2022/01/30 22:06:09;;;;;;;12;21.5;;;;;;;3.4;66.5;98170;;;;
2022/01/30 22:17:09;;;;;;;12.5;22.4;;;;;;;3.5;66;98180;;;;
2022/01/30 22:27:09;;;;;;;12.5;22.4;;;;;;;3.5;64.7;98180;;;;
2022/01/30 22:37:09;;;;;;;12.5;22.4;;;;;;;3.6;63.5;98190;;;;
2022/01/30 22:48:09;;;;;;;9.8;15.4;;;;;;;3.6;63.7;98200;;;;
2022/01/30 22:58:09;;;;;;;9.8;15.4;;;;;;;3.4;66.2;98230;;;;
2022/01/30 23:08:09;;;;;;;9.8;15.4;;;;;;;3.3;67.7;98260;;;;
2022/01/30 23:19:09;;;;;;;12.1;21.7;;;;;;;3.1;68.7;98260;;;;
2022/01/30 23:29:10;;;;;;;12.1;21.7;;;;;;;3;68.2;98270;;;;
2022/01/30 23:39:10;;;;;;;12.1;21.7;;;;;;;3;67.8;98280;;;;
2022/01/30 23:49:09;;;;;;;11;20;;;;;;;2.9;69.6;98290;;;;
2022/01/30 23:59:09;;;;;;;11;20;;;;;;;2.8;69.1;98280;;;;
